sensor_id;sensor_type;location;lat;lon;timestamp;temperature;humidity
42365;DHT22;28498;54.400;18.566;2023-03-19T00:02:07;7.10;99.90
42365;DHT22;28498;54.400;18.566;2023-03-19T00:04:44;6.90;99.90
42365;DHT22;28498;54.400;18.566;2023-03-19T00:07:13;6.80;99.90
42365;DHT22;28498;54.400;18.566;2023-03-19T00:09:42;6.70;99.90
42365;DHT22;28498;54.400;18.566;2023-03-19T00:12:10;6.60;99.90
42365;DHT22;28498;54.400;18.566;2023-03-19T00:14:37;6.60;99.90
42365;DHT22;28498;54.400;18.566;2023-03-19T00:17:04;6.40;99.90
42365;DHT22;28498;54.400;18.566;2023-03-19T00:19:31;6.50;99.90
42365;DHT22;28498;54.400;18.566;2023-03-19T00:21:59;6.50;99.90
42365;DHT22;28498;54.400;18.566;2023-03-19T00:24:26;6.40;99.90
42365;DHT22;28498;54.400;18.566;2023-03-19T00:26:53;6.50;99.90
42365;DHT22;28498;54.400;18.566;2023-03-19T00:29:20;6.50;99.90
42365;DHT22;28498;54.400;18.566;2023-03-19T00:31:48;6.50;99.90
42365;DHT22;28498;54.400;18.566;2023-03-19T00:34:16;6.70;99.90
42365;DHT22;28498;54.400;18.566;2023-03-19T00:36:45;6.50;99.90
42365;DHT22;28498;54.400;18.566;2023-03-19T00:39:12;6.50;99.90
42365;DHT22;28498;54.400;18.566;2023-03-19T00:41:39;6.30;99.90
42365;DHT22;28498;54.400;18.566;2023-03-19T00:44:06;6.20;99.90
42365;DHT22;28498;54.400;18.566;2023-03-19T00:46:34;6.10;99.90
42365;DHT22;28498;54.400;18.566;2023-03-19T00:49:01;5.90;99.90
42365;DHT22;28498;54.400;18.566;2023-03-19T00:51:28;6.00;99.90
42365;DHT22;28498;54.400;18.566;2023-03-19T00:53:55;6.00;99.90
42365;DHT22;28498;54.400;18.566;2023-03-19T00:56:22;5.90;99.90
42365;DHT22;28498;54.400;18.566;2023-03-19T00:58:49;5.80;99.90
42365;DHT22;28498;54.400;18.566;2023-03-19T01:01:17;5.60;99.90
42365;DHT22;28498;54.400;18.566;2023-03-19T01:03:45;5.50;99.90
42365;DHT22;28498;54.400;18.566;2023-03-19T01:06:13;5.40;99.90
42365;DHT22;28498;54.400;18.566;2023-03-19T01:08:40;5.40;99.90
42365;DHT22;28498;54.400;18.566;2023-03-19T01:11:10;5.30;99.90
42365;DHT22;28498;54.400;18.566;2023-03-19T01:13:38;5.20;99.90
42365;DHT22;28498;54.400;18.566;2023-03-19T01:19:45;5.00;99.90
42365;DHT22;28498;54.400;18.566;2023-03-19T01:25:54;5.00;99.90
42365;DHT22;28498;54.400;18.566;2023-03-19T01:32:09;4.80;99.90
42365;DHT22;28498;54.400;18.566;2023-03-19T01:34:36;4.80;99.90
42365;DHT22;28498;54.400;18.566;2023-03-19T01:37:03;4.70;99.90
42365;DHT22;28498;54.400;18.566;2023-03-19T01:39:30;4.60;99.90
42365;DHT22;28498;54.400;18.566;2023-03-19T01:42:01;4.60;99.90
42365;DHT22;28498;54.400;18.566;2023-03-19T01:44:34;4.40;99.90
42365;DHT22;28498;54.400;18.566;2023-03-19T01:47:05;4.40;99.90
42365;DHT22;28498;54.400;18.566;2023-03-19T01:49:33;4.30;99.90
42365;DHT22;28498;54.400;18.566;2023-03-19T01:55:49;4.30;99.90
42365;DHT22;28498;54.400;18.566;2023-03-19T01:58:16;4.30;99.90
42365;DHT22;28498;54.400;18.566;2023-03-19T02:00:44;4.20;99.90
42365;DHT22;28498;54.400;18.566;2023-03-19T02:03:12;4.30;99.90
42365;DHT22;28498;54.400;18.566;2023-03-19T02:05:40;4.20;99.90
42365;DHT22;28498;54.400;18.566;2023-03-19T02:08:11;4.10;99.90
42365;DHT22;28498;54.400;18.566;2023-03-19T02:10:41;4.10;99.90
42365;DHT22;28498;54.400;18.566;2023-03-19T02:13:09;4.00;99.90
42365;DHT22;28498;54.400;18.566;2023-03-19T02:15:37;3.90;99.90
42365;DHT22;28498;54.400;18.566;2023-03-19T02:18:04;3.90;99.90
42365;DHT22;28498;54.400;18.566;2023-03-19T02:20:57;3.80;99.90
42365;DHT22;28498;54.400;18.566;2023-03-19T02:26:22;3.80;99.90
42365;DHT22;28498;54.400;18.566;2023-03-19T02:28:51;3.70;99.90
42365;DHT22;28498;54.400;18.566;2023-03-19T02:31:18;3.70;99.90
42365;DHT22;28498;54.400;18.566;2023-03-19T02:34:00;3.80;99.90
42365;DHT22;28498;54.400;18.566;2023-03-19T02:36:44;3.80;99.90
42365;DHT22;28498;54.400;18.566;2023-03-19T02:39:21;3.70;99.90
42365;DHT22;28498;54.400;18.566;2023-03-19T02:41:51;3.60;99.90
42365;DHT22;28498;54.400;18.566;2023-03-19T02:44:19;3.60;99.90
42365;DHT22;28498;54.400;18.566;2023-03-19T02:46:46;3.70;99.90
42365;DHT22;28498;54.400;18.566;2023-03-19T02:49:13;3.70;99.90
42365;DHT22;28498;54.400;18.566;2023-03-19T02:51:40;3.70;99.90
42365;DHT22;28498;54.400;18.566;2023-03-19T02:54:08;3.70;99.90
42365;DHT22;28498;54.400;18.566;2023-03-19T02:56:34;3.60;99.90
42365;DHT22;28498;54.400;18.566;2023-03-19T02:59:01;3.70;99.90
42365;DHT22;28498;54.400;18.566;2023-03-19T03:01:28;3.60;99.90
42365;DHT22;28498;54.400;18.566;2023-03-19T03:03:55;3.60;99.90
42365;DHT22;28498;54.400;18.566;2023-03-19T03:06:22;3.50;99.90
42365;DHT22;28498;54.400;18.566;2023-03-19T03:08:49;3.50;99.90
42365;DHT22;28498;54.400;18.566;2023-03-19T03:11:16;3.50;99.90
42365;DHT22;28498;54.400;18.566;2023-03-19T03:13:43;3.50;99.90
42365;DHT22;28498;54.400;18.566;2023-03-19T03:16:10;3.40;99.90
42365;DHT22;28498;54.400;18.566;2023-03-19T03:18:38;3.40;99.90
42365;DHT22;28498;54.400;18.566;2023-03-19T03:21:05;3.50;99.90
42365;DHT22;28498;54.400;18.566;2023-03-19T03:23:32;3.50;99.90
42365;DHT22;28498;54.400;18.566;2023-03-19T03:25:59;3.50;99.90
42365;DHT22;28498;54.400;18.566;2023-03-19T03:28:26;3.40;99.90
42365;DHT22;28498;54.400;18.566;2023-03-19T03:31:02;3.40;99.90
42365;DHT22;28498;54.400;18.566;2023-03-19T03:33:29;3.40;99.90
42365;DHT22;28498;54.400;18.566;2023-03-19T03:35:56;3.40;99.90
42365;DHT22;28498;54.400;18.566;2023-03-19T03:38:23;3.40;99.90
42365;DHT22;28498;54.400;18.566;2023-03-19T03:40:51;3.40;99.90
42365;DHT22;28498;54.400;18.566;2023-03-19T03:43:19;3.30;99.90
42365;DHT22;28498;54.400;18.566;2023-03-19T03:45:47;3.30;99.90
42365;DHT22;28498;54.400;18.566;2023-03-19T03:48:14;3.30;99.90
42365;DHT22;28498;54.400;18.566;2023-03-19T03:50:42;3.30;99.90
42365;DHT22;28498;54.400;18.566;2023-03-19T03:53:10;3.30;99.90
42365;DHT22;28498;54.400;18.566;2023-03-19T03:55:38;3.40;99.90
42365;DHT22;28498;54.400;18.566;2023-03-19T03:58:05;3.40;99.90
42365;DHT22;28498;54.400;18.566;2023-03-19T04:00:33;3.40;99.90
42365;DHT22;28498;54.400;18.566;2023-03-19T04:03:00;3.40;99.90
42365;DHT22;28498;54.400;18.566;2023-03-19T04:05:27;3.40;99.90
42365;DHT22;28498;54.400;18.566;2023-03-19T04:07:54;3.50;99.90
42365;DHT22;28498;54.400;18.566;2023-03-19T04:10:21;3.50;99.90
42365;DHT22;28498;54.400;18.566;2023-03-19T04:12:49;3.50;99.90
42365;DHT22;28498;54.400;18.566;2023-03-19T04:15:16;3.50;99.90
42365;DHT22;28498;54.400;18.566;2023-03-19T04:17:43;3.50;99.90
42365;DHT22;28498;54.400;18.566;2023-03-19T04:20:11;3.50;99.90
42365;DHT22;28498;54.400;18.566;2023-03-19T04:22:38;3.50;99.90
42365;DHT22;28498;54.400;18.566;2023-03-19T04:25:05;3.40;99.90
42365;DHT22;28498;54.400;18.566;2023-03-19T04:27:34;3.30;99.90
42365;DHT22;28498;54.400;18.566;2023-03-19T04:30:01;3.30;99.90
42365;DHT22;28498;54.400;18.566;2023-03-19T04:32:28;3.20;99.90
42365;DHT22;28498;54.400;18.566;2023-03-19T04:34:55;3.20;99.90
42365;DHT22;28498;54.400;18.566;2023-03-19T04:37:24;3.10;99.90
42365;DHT22;28498;54.400;18.566;2023-03-19T04:39:51;3.10;99.90
42365;DHT22;28498;54.400;18.566;2023-03-19T04:42:18;3.10;99.90
42365;DHT22;28498;54.400;18.566;2023-03-19T04:44:46;3.20;99.90
42365;DHT22;28498;54.400;18.566;2023-03-19T04:47:14;3.20;99.90
42365;DHT22;28498;54.400;18.566;2023-03-19T04:49:41;3.10;99.90
42365;DHT22;28498;54.400;18.566;2023-03-19T04:52:08;3.10;99.90
42365;DHT22;28498;54.400;18.566;2023-03-19T04:54:35;3.20;99.90
42365;DHT22;28498;54.400;18.566;2023-03-19T04:57:02;3.20;99.90
42365;DHT22;28498;54.400;18.566;2023-03-19T04:59:29;3.20;99.90
42365;DHT22;28498;54.400;18.566;2023-03-19T05:01:56;3.20;99.90
42365;DHT22;28498;54.400;18.566;2023-03-19T05:04:23;3.30;99.90
42365;DHT22;28498;54.400;18.566;2023-03-19T05:06:50;3.30;99.90
42365;DHT22;28498;54.400;18.566;2023-03-19T05:09:18;3.20;99.90
42365;DHT22;28498;54.400;18.566;2023-03-19T05:11:45;3.30;99.90
42365;DHT22;28498;54.400;18.566;2023-03-19T05:14:12;3.30;99.90
42365;DHT22;28498;54.400;18.566;2023-03-19T05:16:39;3.40;99.90
42365;DHT22;28498;54.400;18.566;2023-03-19T05:19:06;3.40;99.90
42365;DHT22;28498;54.400;18.566;2023-03-19T05:21:34;3.40;99.90
42365;DHT22;28498;54.400;18.566;2023-03-19T05:24:01;3.50;99.90
42365;DHT22;28498;54.400;18.566;2023-03-19T05:26:27;3.50;99.90
42365;DHT22;28498;54.400;18.566;2023-03-19T05:28:54;3.50;99.90
42365;DHT22;28498;54.400;18.566;2023-03-19T05:31:22;3.60;99.90
42365;DHT22;28498;54.400;18.566;2023-03-19T05:33:49;3.60;99.90
42365;DHT22;28498;54.400;18.566;2023-03-19T05:36:16;3.70;99.90
42365;DHT22;28498;54.400;18.566;2023-03-19T05:38:43;3.70;99.90
42365;DHT22;28498;54.400;18.566;2023-03-19T05:41:10;3.80;99.90
42365;DHT22;28498;54.400;18.566;2023-03-19T05:43:37;3.90;99.90
42365;DHT22;28498;54.400;18.566;2023-03-19T05:46:04;4.10;99.90
42365;DHT22;28498;54.400;18.566;2023-03-19T05:48:32;4.10;99.90
42365;DHT22;28498;54.400;18.566;2023-03-19T05:50:59;4.20;99.90
42365;DHT22;28498;54.400;18.566;2023-03-19T05:53:27;4.30;99.90
42365;DHT22;28498;54.400;18.566;2023-03-19T05:55:54;4.30;99.90
42365;DHT22;28498;54.400;18.566;2023-03-19T05:58:21;4.30;99.90
42365;DHT22;28498;54.400;18.566;2023-03-19T06:00:48;4.30;99.90
42365;DHT22;28498;54.400;18.566;2023-03-19T06:03:16;4.50;99.90
42365;DHT22;28498;54.400;18.566;2023-03-19T06:05:43;4.60;99.90
42365;DHT22;28498;54.400;18.566;2023-03-19T06:08:10;4.70;99.90
42365;DHT22;28498;54.400;18.566;2023-03-19T06:10:37;4.80;99.90
42365;DHT22;28498;54.400;18.566;2023-03-19T06:13:04;4.90;99.90
42365;DHT22;28498;54.400;18.566;2023-03-19T06:15:32;4.90;99.90
42365;DHT22;28498;54.400;18.566;2023-03-19T06:17:59;5.00;99.90
42365;DHT22;28498;54.400;18.566;2023-03-19T06:20:26;5.10;99.90
42365;DHT22;28498;54.400;18.566;2023-03-19T06:22:53;5.20;99.90
42365;DHT22;28498;54.400;18.566;2023-03-19T06:25:20;5.30;99.90
42365;DHT22;28498;54.400;18.566;2023-03-19T06:27:47;5.30;99.90
42365;DHT22;28498;54.400;18.566;2023-03-19T06:30:15;5.50;99.90
42365;DHT22;28498;54.400;18.566;2023-03-19T06:32:42;5.70;99.90
42365;DHT22;28498;54.400;18.566;2023-03-19T06:35:09;5.80;99.90
42365;DHT22;28498;54.400;18.566;2023-03-19T06:37:36;5.90;99.90
42365;DHT22;28498;54.400;18.566;2023-03-19T06:40:04;6.10;99.90
42365;DHT22;28498;54.400;18.566;2023-03-19T06:42:31;6.10;99.90
42365;DHT22;28498;54.400;18.566;2023-03-19T06:44:58;6.10;99.90
42365;DHT22;28498;54.400;18.566;2023-03-19T06:47:25;6.20;99.90
42365;DHT22;28498;54.400;18.566;2023-03-19T06:49:52;6.20;99.90
42365;DHT22;28498;54.400;18.566;2023-03-19T06:52:19;6.10;99.90
42365;DHT22;28498;54.400;18.566;2023-03-19T06:54:46;6.10;99.90
42365;DHT22;28498;54.400;18.566;2023-03-19T06:57:13;6.00;99.90
42365;DHT22;28498;54.400;18.566;2023-03-19T06:59:41;6.10;99.90
42365;DHT22;28498;54.400;18.566;2023-03-19T07:02:10;6.30;99.90
42365;DHT22;28498;54.400;18.566;2023-03-19T07:04:37;6.50;99.90
42365;DHT22;28498;54.400;18.566;2023-03-19T07:07:04;6.80;99.90
42365;DHT22;28498;54.400;18.566;2023-03-19T07:09:31;7.10;99.90
42365;DHT22;28498;54.400;18.566;2023-03-19T07:11:58;7.40;99.90
42365;DHT22;28498;54.400;18.566;2023-03-19T07:14:25;7.60;99.90
42365;DHT22;28498;54.400;18.566;2023-03-19T07:16:52;8.00;99.90
42365;DHT22;28498;54.400;18.566;2023-03-19T07:19:19;8.20;99.90
42365;DHT22;28498;54.400;18.566;2023-03-19T07:25:34;8.60;99.90
42365;DHT22;28498;54.400;18.566;2023-03-19T07:28:01;8.80;99.90
42365;DHT22;28498;54.400;18.566;2023-03-19T07:30:28;9.00;99.90
42365;DHT22;28498;54.400;18.566;2023-03-19T07:32:56;9.20;99.90
42365;DHT22;28498;54.400;18.566;2023-03-19T07:35:23;9.50;99.90
42365;DHT22;28498;54.400;18.566;2023-03-19T07:37:50;9.70;99.90
42365;DHT22;28498;54.400;18.566;2023-03-19T07:40:17;9.90;99.90
42365;DHT22;28498;54.400;18.566;2023-03-19T07:42:44;10.10;99.90
42365;DHT22;28498;54.400;18.566;2023-03-19T07:45:11;10.20;99.90
42365;DHT22;28498;54.400;18.566;2023-03-19T07:47:38;10.30;99.90
42365;DHT22;28498;54.400;18.566;2023-03-19T07:50:06;10.40;99.90
42365;DHT22;28498;54.400;18.566;2023-03-19T07:56:21;10.60;99.90
42365;DHT22;28498;54.400;18.566;2023-03-19T07:58:48;10.70;99.90
42365;DHT22;28498;54.400;18.566;2023-03-19T08:01:15;10.80;99.90
42365;DHT22;28498;54.400;18.566;2023-03-19T08:03:42;10.90;99.90
42365;DHT22;28498;54.400;18.566;2023-03-19T08:06:10;11.20;99.90
42365;DHT22;28498;54.400;18.566;2023-03-19T08:08:37;11.40;99.90
42365;DHT22;28498;54.400;18.566;2023-03-19T08:11:04;11.40;99.90
42365;DHT22;28498;54.400;18.566;2023-03-19T08:13:31;11.60;99.90
42365;DHT22;28498;54.400;18.566;2023-03-19T08:15:58;11.80;99.90
42365;DHT22;28498;54.400;18.566;2023-03-19T08:18:25;12.00;99.90
42365;DHT22;28498;54.400;18.566;2023-03-19T08:20:52;12.30;99.90
42365;DHT22;28498;54.400;18.566;2023-03-19T08:23:19;12.50;99.90
42365;DHT22;28498;54.400;18.566;2023-03-19T08:25:47;12.70;99.90
42365;DHT22;28498;54.400;18.566;2023-03-19T08:28:17;13.00;99.90
42365;DHT22;28498;54.400;18.566;2023-03-19T08:30:44;13.30;99.90
42365;DHT22;28498;54.400;18.566;2023-03-19T08:33:11;13.50;99.90
42365;DHT22;28498;54.400;18.566;2023-03-19T08:35:39;13.70;99.90
42365;DHT22;28498;54.400;18.566;2023-03-19T08:38:06;13.80;99.90
42365;DHT22;28498;54.400;18.566;2023-03-19T08:40:32;13.80;99.90
42365;DHT22;28498;54.400;18.566;2023-03-19T08:43:00;13.80;99.90
42365;DHT22;28498;54.400;18.566;2023-03-19T08:45:27;13.90;99.90
42365;DHT22;28498;54.400;18.566;2023-03-19T08:47:54;14.00;99.90
42365;DHT22;28498;54.400;18.566;2023-03-19T08:50:23;14.00;99.90
42365;DHT22;28498;54.400;18.566;2023-03-19T08:52:50;14.10;99.90
42365;DHT22;28498;54.400;18.566;2023-03-19T08:55:17;14.10;99.90
42365;DHT22;28498;54.400;18.566;2023-03-19T08:57:44;14.20;99.90
42365;DHT22;28498;54.400;18.566;2023-03-19T09:00:12;14.30;99.90
42365;DHT22;28498;54.400;18.566;2023-03-19T09:02:39;14.40;99.90
42365;DHT22;28498;54.400;18.566;2023-03-19T09:05:06;14.60;99.90
42365;DHT22;28498;54.400;18.566;2023-03-19T09:07:33;14.60;99.90
42365;DHT22;28498;54.400;18.566;2023-03-19T09:10:00;14.80;99.90
42365;DHT22;28498;54.400;18.566;2023-03-19T09:12:27;14.90;99.90
42365;DHT22;28498;54.400;18.566;2023-03-19T09:14:54;15.10;99.90
42365;DHT22;28498;54.400;18.566;2023-03-19T09:17:21;15.20;99.90
42365;DHT22;28498;54.400;18.566;2023-03-19T09:19:48;15.30;99.90
42365;DHT22;28498;54.400;18.566;2023-03-19T09:22:15;15.40;99.20
42365;DHT22;28498;54.400;18.566;2023-03-19T09:24:42;15.50;98.20
42365;DHT22;28498;54.400;18.566;2023-03-19T09:27:09;15.70;97.30
42365;DHT22;28498;54.400;18.566;2023-03-19T09:29:37;15.80;96.30
42365;DHT22;28498;54.400;18.566;2023-03-19T09:32:04;15.90;96.60
42365;DHT22;28498;54.400;18.566;2023-03-19T09:34:31;16.00;96.20
42365;DHT22;28498;54.400;18.566;2023-03-19T09:36:58;16.00;95.60
42365;DHT22;28498;54.400;18.566;2023-03-19T09:39:25;16.10;95.40
42365;DHT22;28498;54.400;18.566;2023-03-19T09:45:13;16.30;95.20
42365;DHT22;28498;54.400;18.566;2023-03-19T09:47:42;16.40;94.50
42365;DHT22;28498;54.400;18.566;2023-03-19T09:50:21;16.50;93.70
42365;DHT22;28498;54.400;18.566;2023-03-19T09:57:52;16.70;92.60
42365;DHT22;28498;54.400;18.566;2023-03-19T10:00:31;16.70;91.90
42365;DHT22;28498;54.400;18.566;2023-03-19T10:03:21;16.70;92.10
42365;DHT22;28498;54.400;18.566;2023-03-19T10:06:12;16.80;90.80
42365;DHT22;28498;54.400;18.566;2023-03-19T10:17:05;17.00;88.30
42365;DHT22;28498;54.400;18.566;2023-03-19T10:19:44;17.10;87.30
42365;DHT22;28498;54.400;18.566;2023-03-19T10:22:24;17.30;87.80
42365;DHT22;28498;54.400;18.566;2023-03-19T10:24:55;17.30;87.00
42365;DHT22;28498;54.400;18.566;2023-03-19T10:36:39;17.10;84.00
42365;DHT22;28498;54.400;18.566;2023-03-19T10:39:06;17.10;84.40
42365;DHT22;28498;54.400;18.566;2023-03-19T10:41:56;17.10;86.00
42365;DHT22;28498;54.400;18.566;2023-03-19T10:44:33;17.20;85.40
42365;DHT22;28498;54.400;18.566;2023-03-19T10:47:12;17.20;86.00
42365;DHT22;28498;54.400;18.566;2023-03-19T10:49:40;17.20;84.10
42365;DHT22;28498;54.400;18.566;2023-03-19T10:52:19;17.40;85.10
42365;DHT22;28498;54.400;18.566;2023-03-19T10:54:47;17.40;83.70
42365;DHT22;28498;54.400;18.566;2023-03-19T10:57:28;17.50;82.60
42365;DHT22;28498;54.400;18.566;2023-03-19T11:00:02;17.40;82.20
42365;DHT22;28498;54.400;18.566;2023-03-19T11:02:31;17.40;83.50
42365;DHT22;28498;54.400;18.566;2023-03-19T11:07:35;17.20;83.70
42365;DHT22;28498;54.400;18.566;2023-03-19T11:10:03;17.20;84.10
42365;DHT22;28498;54.400;18.566;2023-03-19T11:12:34;17.30;85.30
42365;DHT22;28498;54.400;18.566;2023-03-19T11:15:03;17.40;84.20
42365;DHT22;28498;54.400;18.566;2023-03-19T11:17:48;17.70;82.90
42365;DHT22;28498;54.400;18.566;2023-03-19T11:22:54;17.90;79.50
42365;DHT22;28498;54.400;18.566;2023-03-19T11:25:45;17.90;79.00
42365;DHT22;28498;54.400;18.566;2023-03-19T11:28:15;18.00;78.30
42365;DHT22;28498;54.400;18.566;2023-03-19T11:31:05;18.10;78.80
42365;DHT22;28498;54.400;18.566;2023-03-19T11:40:50;18.30;77.20
42365;DHT22;28498;54.400;18.566;2023-03-19T11:43:43;18.20;77.40
42365;DHT22;28498;54.400;18.566;2023-03-19T11:47:04;18.20;78.30
42365;DHT22;28498;54.400;18.566;2023-03-19T11:50:02;18.30;76.30
42365;DHT22;28498;54.400;18.566;2023-03-19T11:53:23;18.40;77.40
42365;DHT22;28498;54.400;18.566;2023-03-19T11:56:24;18.40;75.40
42365;DHT22;28498;54.400;18.566;2023-03-19T12:01:50;18.40;75.80
42365;DHT22;28498;54.400;18.566;2023-03-19T12:07:43;18.20;74.70
42365;DHT22;28498;54.400;18.566;2023-03-19T12:20:13;18.10;76.80
42365;DHT22;28498;54.400;18.566;2023-03-19T12:28:34;18.70;75.70
42365;DHT22;28498;54.400;18.566;2023-03-19T12:34:06;18.30;75.40
42365;DHT22;28498;54.400;18.566;2023-03-19T12:36:40;18.50;75.30
42365;DHT22;28498;54.400;18.566;2023-03-19T12:39:17;18.30;74.90
42365;DHT22;28498;54.400;18.566;2023-03-19T12:41:46;18.50;77.00
42365;DHT22;28498;54.400;18.566;2023-03-19T12:44:42;18.50;76.00
42365;DHT22;28498;54.400;18.566;2023-03-19T12:47:18;18.60;76.80
42365;DHT22;28498;54.400;18.566;2023-03-19T12:56:06;18.90;74.70
42365;DHT22;28498;54.400;18.566;2023-03-19T13:01:15;18.90;75.20
42365;DHT22;28498;54.400;18.566;2023-03-19T13:06:41;18.90;74.60
42365;DHT22;28498;54.400;18.566;2023-03-19T13:12:03;18.90;75.80
42365;DHT22;28498;54.400;18.566;2023-03-19T13:19:54;18.90;75.10
42365;DHT22;28498;54.400;18.566;2023-03-19T13:22:26;19.00;74.60
42365;DHT22;28498;54.400;18.566;2023-03-19T13:24:55;18.80;75.00
42365;DHT22;28498;54.400;18.566;2023-03-19T13:27:28;18.70;75.70
42365;DHT22;28498;54.400;18.566;2023-03-19T13:32:36;18.60;74.90
42365;DHT22;28498;54.400;18.566;2023-03-19T13:35:11;18.60;76.20
42365;DHT22;28498;54.400;18.566;2023-03-19T13:37:43;18.50;76.30
42365;DHT22;28498;54.400;18.566;2023-03-19T13:54:06;17.60;77.80
42365;DHT22;28498;54.400;18.566;2023-03-19T13:59:29;17.70;78.80
42365;DHT22;28498;54.400;18.566;2023-03-19T14:01:58;17.60;80.00
42365;DHT22;28498;54.400;18.566;2023-03-19T14:04:28;17.50;80.70
42365;DHT22;28498;54.400;18.566;2023-03-19T14:12:30;17.70;82.10
42365;DHT22;28498;54.400;18.566;2023-03-19T14:17:33;17.70;80.80
42365;DHT22;28498;54.400;18.566;2023-03-19T14:20:22;17.60;80.80
42365;DHT22;28498;54.400;18.566;2023-03-19T14:25:55;16.50;78.50
42365;DHT22;28498;54.400;18.566;2023-03-19T14:31:03;15.50;82.10
42365;DHT22;28498;54.400;18.566;2023-03-19T14:33:42;15.10;85.10
42365;DHT22;28498;54.400;18.566;2023-03-19T14:36:15;14.70;85.50
42365;DHT22;28498;54.400;18.566;2023-03-19T14:38:56;14.40;89.60
42365;DHT22;28498;54.400;18.566;2023-03-19T14:41:26;14.00;90.10
42365;DHT22;28498;54.400;18.566;2023-03-19T14:47:02;13.40;93.60
42365;DHT22;28498;54.400;18.566;2023-03-19T14:52:34;13.00;98.70
42365;DHT22;28498;54.400;18.566;2023-03-19T14:55:09;12.90;99.90
42365;DHT22;28498;54.400;18.566;2023-03-19T14:57:37;12.80;99.90
42365;DHT22;28498;54.400;18.566;2023-03-19T15:00:10;12.70;99.90
42365;DHT22;28498;54.400;18.566;2023-03-19T15:02:40;12.60;99.90
42365;DHT22;28498;54.400;18.566;2023-03-19T15:05:27;12.40;99.90
42365;DHT22;28498;54.400;18.566;2023-03-19T15:08:10;12.50;99.90
42365;DHT22;28498;54.400;18.566;2023-03-19T15:18:51;12.90;99.90
42365;DHT22;28498;54.400;18.566;2023-03-19T15:21:19;12.80;99.90
42365;DHT22;28498;54.400;18.566;2023-03-19T15:23:48;12.70;99.90
42365;DHT22;28498;54.400;18.566;2023-03-19T15:30:17;12.10;99.90
42365;DHT22;28498;54.400;18.566;2023-03-19T15:32:45;11.90;99.90
42365;DHT22;28498;54.400;18.566;2023-03-19T15:35:35;11.60;99.90
42365;DHT22;28498;54.400;18.566;2023-03-19T15:38:10;11.40;99.90
42365;DHT22;28498;54.400;18.566;2023-03-19T15:40:40;11.30;99.90
42365;DHT22;28498;54.400;18.566;2023-03-19T15:43:10;11.30;99.90
42365;DHT22;28498;54.400;18.566;2023-03-19T15:45:40;11.30;99.90
42365;DHT22;28498;54.400;18.566;2023-03-19T15:50:49;11.00;99.90
42365;DHT22;28498;54.400;18.566;2023-03-19T15:53:20;10.80;99.90
42365;DHT22;28498;54.400;18.566;2023-03-19T15:55:49;10.70;99.90
42365;DHT22;28498;54.400;18.566;2023-03-19T15:58:23;10.60;99.90
42365;DHT22;28498;54.400;18.566;2023-03-19T16:00:54;10.50;99.90
42365;DHT22;28498;54.400;18.566;2023-03-19T16:03:27;10.50;99.90
42365;DHT22;28498;54.400;18.566;2023-03-19T16:06:00;10.40;99.90
42365;DHT22;28498;54.400;18.566;2023-03-19T16:08:30;10.40;99.90
42365;DHT22;28498;54.400;18.566;2023-03-19T16:11:14;10.40;99.90
42365;DHT22;28498;54.400;18.566;2023-03-19T16:13:45;10.30;99.90
42365;DHT22;28498;54.400;18.566;2023-03-19T16:16:20;10.30;99.90
42365;DHT22;28498;54.400;18.566;2023-03-19T16:18:53;10.30;99.90
42365;DHT22;28498;54.400;18.566;2023-03-19T16:23:58;10.30;99.90
42365;DHT22;28498;54.400;18.566;2023-03-19T16:31:50;10.30;99.90
42365;DHT22;28498;54.400;18.566;2023-03-19T16:34:29;10.30;99.90
42365;DHT22;28498;54.400;18.566;2023-03-19T16:36:58;10.30;99.90
42365;DHT22;28498;54.400;18.566;2023-03-19T16:39:32;10.20;99.90
42365;DHT22;28498;54.400;18.566;2023-03-19T16:44:42;10.10;99.90
42365;DHT22;28498;54.400;18.566;2023-03-19T16:47:14;10.10;99.90
42365;DHT22;28498;54.400;18.566;2023-03-19T16:49:41;10.10;99.90
42365;DHT22;28498;54.400;18.566;2023-03-19T16:52:20;10.10;99.90
42365;DHT22;28498;54.400;18.566;2023-03-19T16:54:49;10.10;99.90
42365;DHT22;28498;54.400;18.566;2023-03-19T16:57:17;10.10;99.90
42365;DHT22;28498;54.400;18.566;2023-03-19T16:59:45;10.10;99.90
42365;DHT22;28498;54.400;18.566;2023-03-19T17:02:15;10.10;99.90
42365;DHT22;28498;54.400;18.566;2023-03-19T17:04:43;10.00;99.90
42365;DHT22;28498;54.400;18.566;2023-03-19T17:07:11;10.00;99.90
42365;DHT22;28498;54.400;18.566;2023-03-19T17:09:39;10.00;99.90
42365;DHT22;28498;54.400;18.566;2023-03-19T17:12:14;10.00;99.90
42365;DHT22;28498;54.400;18.566;2023-03-19T17:14:42;9.90;99.90
42365;DHT22;28498;54.400;18.566;2023-03-19T17:17:18;10.00;99.90
42365;DHT22;28498;54.400;18.566;2023-03-19T17:19:46;9.90;99.90
42365;DHT22;28498;54.400;18.566;2023-03-19T17:22:13;9.90;99.90
42365;DHT22;28498;54.400;18.566;2023-03-19T17:24:40;9.90;99.90
42365;DHT22;28498;54.400;18.566;2023-03-19T17:27:08;9.80;99.90
42365;DHT22;28498;54.400;18.566;2023-03-19T17:29:36;9.80;99.90
42365;DHT22;28498;54.400;18.566;2023-03-19T17:32:04;9.80;99.90
42365;DHT22;28498;54.400;18.566;2023-03-19T17:34:34;9.70;99.90
42365;DHT22;28498;54.400;18.566;2023-03-19T17:37:05;9.70;99.90
42365;DHT22;28498;54.400;18.566;2023-03-19T17:39:32;9.70;99.90
42365;DHT22;28498;54.400;18.566;2023-03-19T17:41:59;9.60;99.90
42365;DHT22;28498;54.400;18.566;2023-03-19T17:44:26;9.70;99.90
42365;DHT22;28498;54.400;18.566;2023-03-19T17:46:54;9.60;99.90
42365;DHT22;28498;54.400;18.566;2023-03-19T17:49:26;9.60;99.90
42365;DHT22;28498;54.400;18.566;2023-03-19T17:51:59;9.60;99.90
42365;DHT22;28498;54.400;18.566;2023-03-19T17:54:26;9.60;99.90
42365;DHT22;28498;54.400;18.566;2023-03-19T17:56:54;9.70;99.90
42365;DHT22;28498;54.400;18.566;2023-03-19T17:59:22;9.70;99.90
42365;DHT22;28498;54.400;18.566;2023-03-19T18:01:49;9.60;99.90
42365;DHT22;28498;54.400;18.566;2023-03-19T18:04:19;9.60;99.90
42365;DHT22;28498;54.400;18.566;2023-03-19T18:06:54;9.60;99.90
42365;DHT22;28498;54.400;18.566;2023-03-19T18:09:24;9.60;99.90
42365;DHT22;28498;54.400;18.566;2023-03-19T18:11:52;9.60;99.90
42365;DHT22;28498;54.400;18.566;2023-03-19T18:14:19;9.60;99.90
42365;DHT22;28498;54.400;18.566;2023-03-19T18:16:46;9.60;99.90
42365;DHT22;28498;54.400;18.566;2023-03-19T18:21:44;9.60;99.90
42365;DHT22;28498;54.400;18.566;2023-03-19T18:24:11;9.60;99.90
42365;DHT22;28498;54.400;18.566;2023-03-19T18:26:38;9.50;99.90
42365;DHT22;28498;54.400;18.566;2023-03-19T18:29:05;9.40;99.90
42365;DHT22;28498;54.400;18.566;2023-03-19T18:31:32;9.40;99.90
42365;DHT22;28498;54.400;18.566;2023-03-19T18:34:02;9.40;99.90
42365;DHT22;28498;54.400;18.566;2023-03-19T18:36:32;9.40;99.90
42365;DHT22;28498;54.400;18.566;2023-03-19T18:38:59;9.30;99.90